sensor_id;sensor_type;location;lat;lon;timestamp;P1;durP1;ratioP1;P2;durP2;ratioP2
8100;SDS011;4093;53.470;9.832;2024-03-02T00:01:43;17.17;;;11.83;;
8100;SDS011;4093;53.470;9.832;2024-03-02T00:04:11;21.37;;;13.30;;
8100;SDS011;4093;53.470;9.832;2024-03-02T00:06:39;20.97;;;13.33;;
8100;SDS011;4093;53.470;9.832;2024-03-02T00:09:06;20.37;;;12.90;;
8100;SDS011;4093;53.470;9.832;2024-03-02T00:11:37;18.37;;;12.33;;
8100;SDS011;4093;53.470;9.832;2024-03-02T00:14:06;21.93;;;13.63;;
8100;SDS011;4093;53.470;9.832;2024-03-02T00:16:34;21.87;;;13.33;;
8100;SDS011;4093;53.470;9.832;2024-03-02T00:19:04;17.67;;;12.63;;
8100;SDS011;4093;53.470;9.832;2024-03-02T00:21:33;17.43;;;12.57;;
8100;SDS011;4093;53.470;9.832;2024-03-02T00:24:01;19.70;;;12.97;;
8100;SDS011;4093;53.470;9.832;2024-03-02T00:26:34;18.03;;;11.97;;
8100;SDS011;4093;53.470;9.832;2024-03-02T00:29:02;19.30;;;13.50;;
8100;SDS011;4093;53.470;9.832;2024-03-02T00:31:29;20.57;;;13.37;;
8100;SDS011;4093;53.470;9.832;2024-03-02T00:33:59;18.63;;;14.03;;
8100;SDS011;4093;53.470;9.832;2024-03-02T00:36:34;17.67;;;13.03;;
8100;SDS011;4093;53.470;9.832;2024-03-02T00:39:03;19.43;;;13.73;;
8100;SDS011;4093;53.470;9.832;2024-03-02T00:41:34;18.67;;;13.57;;
8100;SDS011;4093;53.470;9.832;2024-03-02T00:44:03;19.50;;;14.47;;
8100;SDS011;4093;53.470;9.832;2024-03-02T00:46:33;21.23;;;14.27;;
8100;SDS011;4093;53.470;9.832;2024-03-02T00:49:02;19.17;;;14.20;;
8100;SDS011;4093;53.470;9.832;2024-03-02T00:51:31;20.03;;;14.53;;
8100;SDS011;4093;53.470;9.832;2024-03-02T00:54:03;19.83;;;13.63;;
8100;SDS011;4093;53.470;9.832;2024-03-02T00:56:31;20.13;;;14.13;;
8100;SDS011;4093;53.470;9.832;2024-03-02T00:59:01;20.00;;;13.40;;
8100;SDS011;4093;53.470;9.832;2024-03-02T01:01:28;19.80;;;14.33;;
8100;SDS011;4093;53.470;9.832;2024-03-02T01:03:56;22.83;;;15.17;;
8100;SDS011;4093;53.470;9.832;2024-03-02T01:06:24;18.97;;;13.93;;
8100;SDS011;4093;53.470;9.832;2024-03-02T01:08:52;20.03;;;15.23;;
8100;SDS011;4093;53.470;9.832;2024-03-02T01:11:21;21.33;;;13.97;;
8100;SDS011;4093;53.470;9.832;2024-03-02T01:13:50;21.13;;;13.47;;
8100;SDS011;4093;53.470;9.832;2024-03-02T01:16:18;24.23;;;15.47;;
8100;SDS011;4093;53.470;9.832;2024-03-02T01:18:45;22.10;;;15.40;;
8100;SDS011;4093;53.470;9.832;2024-03-02T01:21:14;21.43;;;14.20;;
8100;SDS011;4093;53.470;9.832;2024-03-02T01:23:42;22.80;;;15.33;;
8100;SDS011;4093;53.470;9.832;2024-03-02T01:26:10;24.40;;;15.63;;
8100;SDS011;4093;53.470;9.832;2024-03-02T01:28:39;22.33;;;14.73;;
8100;SDS011;4093;53.470;9.832;2024-03-02T01:31:07;21.67;;;15.60;;
8100;SDS011;4093;53.470;9.832;2024-03-02T01:33:34;21.93;;;15.43;;
8100;SDS011;4093;53.470;9.832;2024-03-02T01:36:02;23.20;;;16.03;;
8100;SDS011;4093;53.470;9.832;2024-03-02T01:38:30;24.10;;;16.57;;
8100;SDS011;4093;53.470;9.832;2024-03-02T01:40:57;25.00;;;16.37;;
8100;SDS011;4093;53.470;9.832;2024-03-02T01:43:25;26.63;;;16.47;;
8100;SDS011;4093;53.470;9.832;2024-03-02T01:45:55;22.53;;;16.03;;
8100;SDS011;4093;53.470;9.832;2024-03-02T01:48:23;25.50;;;17.03;;
8100;SDS011;4093;53.470;9.832;2024-03-02T01:50:51;24.93;;;16.63;;
8100;SDS011;4093;53.470;9.832;2024-03-02T01:53:19;22.57;;;16.87;;
8100;SDS011;4093;53.470;9.832;2024-03-02T01:55:47;26.10;;;17.17;;
8100;SDS011;4093;53.470;9.832;2024-03-02T01:58:14;25.00;;;16.63;;
8100;SDS011;4093;53.470;9.832;2024-03-02T02:00:42;26.30;;;17.20;;
8100;SDS011;4093;53.470;9.832;2024-03-02T02:03:12;23.53;;;17.60;;
8100;SDS011;4093;53.470;9.832;2024-03-02T02:05:41;22.90;;;17.23;;
8100;SDS011;4093;53.470;9.832;2024-03-02T02:08:09;21.80;;;16.13;;
8100;SDS011;4093;53.470;9.832;2024-03-02T02:10:37;25.90;;;16.67;;
8100;SDS011;4093;53.470;9.832;2024-03-02T02:13:05;26.17;;;17.67;;
8100;SDS011;4093;53.470;9.832;2024-03-02T02:15:34;28.57;;;17.53;;
8100;SDS011;4093;53.470;9.832;2024-03-02T02:18:03;25.73;;;17.53;;
8100;SDS011;4093;53.470;9.832;2024-03-02T02:20:33;26.83;;;17.57;;
8100;SDS011;4093;53.470;9.832;2024-03-02T02:23:02;26.90;;;16.77;;
8100;SDS011;4093;53.470;9.832;2024-03-02T02:25:31;25.10;;;16.67;;
8100;SDS011;4093;53.470;9.832;2024-03-02T02:27:59;26.13;;;16.50;;
8100;SDS011;4093;53.470;9.832;2024-03-02T02:30:29;25.00;;;17.17;;
8100;SDS011;4093;53.470;9.832;2024-03-02T02:32:58;25.90;;;16.60;;
8100;SDS011;4093;53.470;9.832;2024-03-02T02:35:26;25.90;;;16.70;;
8100;SDS011;4093;53.470;9.832;2024-03-02T02:37:55;27.20;;;17.57;;
8100;SDS011;4093;53.470;9.832;2024-03-02T02:40:26;25.77;;;17.03;;
8100;SDS011;4093;53.470;9.832;2024-03-02T02:42:55;24.80;;;17.50;;
8100;SDS011;4093;53.470;9.832;2024-03-02T02:45:23;27.00;;;17.77;;
8100;SDS011;4093;53.470;9.832;2024-03-02T02:47:51;28.00;;;18.00;;
8100;SDS011;4093;53.470;9.832;2024-03-02T02:50:18;24.17;;;16.93;;
8100;SDS011;4093;53.470;9.832;2024-03-02T02:52:46;23.43;;;16.10;;
8100;SDS011;4093;53.470;9.832;2024-03-02T02:55:14;23.80;;;16.93;;
8100;SDS011;4093;53.470;9.832;2024-03-02T02:57:43;24.93;;;17.80;;
8100;SDS011;4093;53.470;9.832;2024-03-02T03:00:13;27.77;;;18.33;;
8100;SDS011;4093;53.470;9.832;2024-03-02T03:02:45;28.63;;;17.87;;
8100;SDS011;4093;53.470;9.832;2024-03-02T03:05:15;27.70;;;18.07;;
8100;SDS011;4093;53.470;9.832;2024-03-02T03:07:43;26.13;;;17.87;;
8100;SDS011;4093;53.470;9.832;2024-03-02T03:10:11;27.67;;;18.03;;
8100;SDS011;4093;53.470;9.832;2024-03-02T03:12:41;30.73;;;19.90;;
8100;SDS011;4093;53.470;9.832;2024-03-02T03:15:12;27.40;;;18.07;;
8100;SDS011;4093;53.470;9.832;2024-03-02T03:17:40;26.23;;;17.67;;
8100;SDS011;4093;53.470;9.832;2024-03-02T03:20:08;25.10;;;17.40;;
8100;SDS011;4093;53.470;9.832;2024-03-02T03:22:37;25.10;;;18.03;;
8100;SDS011;4093;53.470;9.832;2024-03-02T03:25:05;29.50;;;18.23;;
8100;SDS011;4093;53.470;9.832;2024-03-02T03:27:34;25.13;;;18.13;;
8100;SDS011;4093;53.470;9.832;2024-03-02T03:30:02;27.50;;;17.43;;
8100;SDS011;4093;53.470;9.832;2024-03-02T03:32:33;27.73;;;17.67;;
8100;SDS011;4093;53.470;9.832;2024-03-02T03:35:01;26.90;;;18.20;;
8100;SDS011;4093;53.470;9.832;2024-03-02T03:37:29;27.93;;;18.87;;
8100;SDS011;4093;53.470;9.832;2024-03-02T03:40:00;29.13;;;18.70;;
8100;SDS011;4093;53.470;9.832;2024-03-02T03:42:28;28.33;;;18.70;;
8100;SDS011;4093;53.470;9.832;2024-03-02T03:44:56;28.10;;;18.93;;
8100;SDS011;4093;53.470;9.832;2024-03-02T03:47:24;27.43;;;19.10;;
8100;SDS011;4093;53.470;9.832;2024-03-02T03:49:53;29.27;;;20.27;;
8100;SDS011;4093;53.470;9.832;2024-03-02T03:52:20;26.17;;;18.77;;
8100;SDS011;4093;53.470;9.832;2024-03-02T03:54:48;26.10;;;18.07;;
8100;SDS011;4093;53.470;9.832;2024-03-02T03:57:16;27.73;;;18.10;;
8100;SDS011;4093;53.470;9.832;2024-03-02T03:59:44;32.47;;;21.23;;
8100;SDS011;4093;53.470;9.832;2024-03-02T04:02:12;30.13;;;19.77;;
8100;SDS011;4093;53.470;9.832;2024-03-02T04:04:40;29.83;;;20.30;;
8100;SDS011;4093;53.470;9.832;2024-03-02T04:07:09;30.40;;;20.47;;
8100;SDS011;4093;53.470;9.832;2024-03-02T04:09:37;29.43;;;19.27;;
8100;SDS011;4093;53.470;9.832;2024-03-02T04:12:05;28.60;;;20.17;;
8100;SDS011;4093;53.470;9.832;2024-03-02T04:14:33;30.77;;;19.07;;
8100;SDS011;4093;53.470;9.832;2024-03-02T04:17:00;30.47;;;19.93;;
8100;SDS011;4093;53.470;9.832;2024-03-02T04:19:28;32.30;;;21.47;;
8100;SDS011;4093;53.470;9.832;2024-03-02T04:21:56;33.23;;;21.47;;
8100;SDS011;4093;53.470;9.832;2024-03-02T04:24:28;32.03;;;21.60;;
8100;SDS011;4093;53.470;9.832;2024-03-02T04:26:56;34.67;;;19.80;;
8100;SDS011;4093;53.470;9.832;2024-03-02T04:29:24;31.83;;;20.10;;
8100;SDS011;4093;53.470;9.832;2024-03-02T04:31:51;32.03;;;20.87;;
8100;SDS011;4093;53.470;9.832;2024-03-02T04:34:19;31.80;;;20.33;;
8100;SDS011;4093;53.470;9.832;2024-03-02T04:36:47;33.17;;;21.03;;
8100;SDS011;4093;53.470;9.832;2024-03-02T04:39:15;30.77;;;19.57;;
8100;SDS011;4093;53.470;9.832;2024-03-02T04:41:44;30.97;;;20.13;;
8100;SDS011;4093;53.470;9.832;2024-03-02T04:44:12;29.00;;;19.73;;
8100;SDS011;4093;53.470;9.832;2024-03-02T04:46:40;27.57;;;18.47;;
8100;SDS011;4093;53.470;9.832;2024-03-02T04:49:07;34.43;;;19.37;;
8100;SDS011;4093;53.470;9.832;2024-03-02T04:51:35;32.40;;;20.60;;
8100;SDS011;4093;53.470;9.832;2024-03-02T04:54:03;28.43;;;19.03;;
8100;SDS011;4093;53.470;9.832;2024-03-02T04:56:30;28.53;;;18.63;;
8100;SDS011;4093;53.470;9.832;2024-03-02T04:59:12;29.63;;;20.37;;
8100;SDS011;4093;53.470;9.832;2024-03-02T05:01:40;31.40;;;19.00;;
8100;SDS011;4093;53.470;9.832;2024-03-02T05:04:07;29.27;;;19.07;;
8100;SDS011;4093;53.470;9.832;2024-03-02T05:06:37;27.73;;;19.70;;
8100;SDS011;4093;53.470;9.832;2024-03-02T05:09:06;31.37;;;19.63;;
8100;SDS011;4093;53.470;9.832;2024-03-02T05:11:34;25.27;;;18.60;;
8100;SDS011;4093;53.470;9.832;2024-03-02T05:14:21;28.37;;;18.60;;
8100;SDS011;4093;53.470;9.832;2024-03-02T05:16:48;28.43;;;18.77;;
8100;SDS011;4093;53.470;9.832;2024-03-02T05:19:16;27.70;;;19.50;;
8100;SDS011;4093;53.470;9.832;2024-03-02T05:21:44;28.03;;;18.40;;
8100;SDS011;4093;53.470;9.832;2024-03-02T05:24:11;26.37;;;18.53;;
8100;SDS011;4093;53.470;9.832;2024-03-02T05:26:39;30.03;;;19.60;;
8100;SDS011;4093;53.470;9.832;2024-03-02T05:29:07;28.80;;;18.03;;
8100;SDS011;4093;53.470;9.832;2024-03-02T05:31:36;25.47;;;17.17;;
8100;SDS011;4093;53.470;9.832;2024-03-02T05:34:03;25.87;;;18.13;;
8100;SDS011;4093;53.470;9.832;2024-03-02T05:36:31;28.07;;;18.53;;
8100;SDS011;4093;53.470;9.832;2024-03-02T05:38:59;29.50;;;18.27;;
8100;SDS011;4093;53.470;9.832;2024-03-02T05:41:27;23.57;;;17.57;;
8100;SDS011;4093;53.470;9.832;2024-03-02T05:43:55;26.43;;;18.40;;
8100;SDS011;4093;53.470;9.832;2024-03-02T05:46:22;28.97;;;18.80;;
8100;SDS011;4093;53.470;9.832;2024-03-02T05:48:51;26.43;;;18.23;;
8100;SDS011;4093;53.470;9.832;2024-03-02T05:51:19;27.17;;;18.07;;
8100;SDS011;4093;53.470;9.832;2024-03-02T05:53:47;22.70;;;17.37;;
8100;SDS011;4093;53.470;9.832;2024-03-02T05:56:15;29.90;;;18.93;;
8100;SDS011;4093;53.470;9.832;2024-03-02T05:58:42;28.83;;;19.43;;
8100;SDS011;4093;53.470;9.832;2024-03-02T06:01:23;28.07;;;18.03;;
8100;SDS011;4093;53.470;9.832;2024-03-02T06:03:56;27.63;;;18.03;;
8100;SDS011;4093;53.470;9.832;2024-03-02T06:06:25;28.73;;;18.10;;
8100;SDS011;4093;53.470;9.832;2024-03-02T06:08:53;27.47;;;17.63;;
8100;SDS011;4093;53.470;9.832;2024-03-02T06:11:21;25.33;;;16.70;;
8100;SDS011;4093;53.470;9.832;2024-03-02T06:13:48;24.63;;;17.47;;
8100;SDS011;4093;53.470;9.832;2024-03-02T06:16:16;27.40;;;17.30;;
8100;SDS011;4093;53.470;9.832;2024-03-02T06:18:44;24.57;;;16.93;;
8100;SDS011;4093;53.470;9.832;2024-03-02T06:21:13;25.83;;;17.70;;
8100;SDS011;4093;53.470;9.832;2024-03-02T06:23:40;27.60;;;17.83;;
8100;SDS011;4093;53.470;9.832;2024-03-02T06:26:09;26.30;;;17.10;;
8100;SDS011;4093;53.470;9.832;2024-03-02T06:28:36;27.57;;;17.63;;
8100;SDS011;4093;53.470;9.832;2024-03-02T06:31:04;28.27;;;17.87;;
8100;SDS011;4093;53.470;9.832;2024-03-02T06:33:32;27.07;;;17.53;;
8100;SDS011;4093;53.470;9.832;2024-03-02T06:36:00;25.30;;;16.37;;
8100;SDS011;4093;53.470;9.832;2024-03-02T06:38:29;24.13;;;16.37;;
8100;SDS011;4093;53.470;9.832;2024-03-02T06:40:58;25.00;;;17.03;;
8100;SDS011;4093;53.470;9.832;2024-03-02T06:43:26;24.20;;;16.57;;
8100;SDS011;4093;53.470;9.832;2024-03-02T06:45:53;27.33;;;17.57;;
8100;SDS011;4093;53.470;9.832;2024-03-02T06:48:22;27.37;;;17.27;;
8100;SDS011;4093;53.470;9.832;2024-03-02T06:50:50;26.93;;;17.63;;
8100;SDS011;4093;53.470;9.832;2024-03-02T06:53:19;25.03;;;16.23;;
8100;SDS011;4093;53.470;9.832;2024-03-02T06:55:48;23.83;;;16.70;;
8100;SDS011;4093;53.470;9.832;2024-03-02T06:58:16;25.43;;;17.13;;
8100;SDS011;4093;53.470;9.832;2024-03-02T07:00:44;24.10;;;16.93;;
8100;SDS011;4093;53.470;9.832;2024-03-02T07:03:12;22.67;;;16.77;;
8100;SDS011;4093;53.470;9.832;2024-03-02T07:05:39;25.77;;;16.10;;
8100;SDS011;4093;53.470;9.832;2024-03-02T07:08:07;26.37;;;16.83;;
8100;SDS011;4093;53.470;9.832;2024-03-02T07:10:35;21.90;;;16.53;;
8100;SDS011;4093;53.470;9.832;2024-03-02T07:13:04;24.27;;;17.07;;
8100;SDS011;4093;53.470;9.832;2024-03-02T07:15:32;25.50;;;16.63;;
8100;SDS011;4093;53.470;9.832;2024-03-02T07:18:32;22.80;;;15.13;;
8100;SDS011;4093;53.470;9.832;2024-03-02T07:21:01;21.97;;;15.47;;
8100;SDS011;4093;53.470;9.832;2024-03-02T07:23:29;25.30;;;15.60;;
8100;SDS011;4093;53.470;9.832;2024-03-02T07:25:57;24.07;;;15.87;;
8100;SDS011;4093;53.470;9.832;2024-03-02T07:28:31;24.20;;;15.47;;
8100;SDS011;4093;53.470;9.832;2024-03-02T07:30:59;26.83;;;15.90;;
8100;SDS011;4093;53.470;9.832;2024-03-02T07:33:27;24.67;;;15.63;;
8100;SDS011;4093;53.470;9.832;2024-03-02T07:35:55;25.90;;;16.37;;
8100;SDS011;4093;53.470;9.832;2024-03-02T07:38:24;21.30;;;14.87;;
8100;SDS011;4093;53.470;9.832;2024-03-02T07:40:52;20.87;;;14.20;;
8100;SDS011;4093;53.470;9.832;2024-03-02T07:43:20;21.27;;;14.57;;
8100;SDS011;4093;53.470;9.832;2024-03-02T07:45:49;23.57;;;15.13;;
8100;SDS011;4093;53.470;9.832;2024-03-02T07:48:17;20.37;;;14.30;;
8100;SDS011;4093;53.470;9.832;2024-03-02T07:50:45;21.63;;;14.43;;
8100;SDS011;4093;53.470;9.832;2024-03-02T07:53:12;20.80;;;13.53;;
8100;SDS011;4093;53.470;9.832;2024-03-02T07:55:40;20.43;;;14.10;;
8100;SDS011;4093;53.470;9.832;2024-03-02T07:58:08;19.47;;;13.80;;
8100;SDS011;4093;53.470;9.832;2024-03-02T08:00:38;21.10;;;14.30;;
8100;SDS011;4093;53.470;9.832;2024-03-02T08:03:07;22.83;;;14.07;;
8100;SDS011;4093;53.470;9.832;2024-03-02T08:05:37;19.33;;;14.60;;
8100;SDS011;4093;53.470;9.832;2024-03-02T08:08:05;21.23;;;14.53;;
8100;SDS011;4093;53.470;9.832;2024-03-02T08:10:33;23.00;;;14.20;;
8100;SDS011;4093;53.470;9.832;2024-03-02T08:13:01;23.40;;;15.17;;
8100;SDS011;4093;53.470;9.832;2024-03-02T08:15:29;23.37;;;14.60;;
8100;SDS011;4093;53.470;9.832;2024-03-02T08:17:57;20.33;;;14.23;;
8100;SDS011;4093;53.470;9.832;2024-03-02T08:20:26;23.37;;;15.07;;
8100;SDS011;4093;53.470;9.832;2024-03-02T08:22:54;23.37;;;13.90;;
8100;SDS011;4093;53.470;9.832;2024-03-02T08:25:22;21.23;;;14.33;;
8100;SDS011;4093;53.470;9.832;2024-03-02T08:27:49;20.93;;;14.10;;
8100;SDS011;4093;53.470;9.832;2024-03-02T08:30:18;26.53;;;16.33;;
8100;SDS011;4093;53.470;9.832;2024-03-02T08:32:45;22.93;;;15.37;;
8100;SDS011;4093;53.470;9.832;2024-03-02T08:35:13;21.67;;;13.50;;
8100;SDS011;4093;53.470;9.832;2024-03-02T08:37:43;20.37;;;13.73;;
8100;SDS011;4093;53.470;9.832;2024-03-02T08:40:11;22.43;;;14.83;;
8100;SDS011;4093;53.470;9.832;2024-03-02T08:42:43;22.77;;;14.83;;
8100;SDS011;4093;53.470;9.832;2024-03-02T08:45:11;18.43;;;13.93;;
8100;SDS011;4093;53.470;9.832;2024-03-02T08:47:39;25.17;;;16.80;;
8100;SDS011;4093;53.470;9.832;2024-03-02T08:50:08;20.03;;;14.57;;
8100;SDS011;4093;53.470;9.832;2024-03-02T08:52:35;21.80;;;15.20;;
8100;SDS011;4093;53.470;9.832;2024-03-02T08:55:05;19.37;;;13.90;;
8100;SDS011;4093;53.470;9.832;2024-03-02T08:57:33;27.97;;;15.17;;
8100;SDS011;4093;53.470;9.832;2024-03-02T09:00:02;20.20;;;14.77;;
8100;SDS011;4093;53.470;9.832;2024-03-02T09:02:31;18.70;;;13.43;;
8100;SDS011;4093;53.470;9.832;2024-03-02T09:04:59;22.17;;;13.60;;
8100;SDS011;4093;53.470;9.832;2024-03-02T09:07:27;18.67;;;13.77;;
8100;SDS011;4093;53.470;9.832;2024-03-02T09:09:54;17.20;;;12.63;;
8100;SDS011;4093;53.470;9.832;2024-03-02T09:12:24;21.03;;;13.63;;
8100;SDS011;4093;53.470;9.832;2024-03-02T09:14:51;18.20;;;12.50;;
8100;SDS011;4093;53.470;9.832;2024-03-02T09:17:19;18.57;;;13.27;;
8100;SDS011;4093;53.470;9.832;2024-03-02T09:19:47;16.50;;;11.67;;
8100;SDS011;4093;53.470;9.832;2024-03-02T09:22:14;19.87;;;13.33;;
8100;SDS011;4093;53.470;9.832;2024-03-02T09:24:42;17.23;;;12.50;;
8100;SDS011;4093;53.470;9.832;2024-03-02T09:27:10;18.93;;;13.00;;
8100;SDS011;4093;53.470;9.832;2024-03-02T09:29:39;17.30;;;12.93;;
8100;SDS011;4093;53.470;9.832;2024-03-02T09:32:07;15.23;;;11.63;;
8100;SDS011;4093;53.470;9.832;2024-03-02T09:34:39;19.07;;;12.20;;
8100;SDS011;4093;53.470;9.832;2024-03-02T09:37:07;17.13;;;12.20;;
8100;SDS011;4093;53.470;9.832;2024-03-02T09:39:35;18.70;;;12.30;;
8100;SDS011;4093;53.470;9.832;2024-03-02T09:42:03;17.53;;;11.70;;
8100;SDS011;4093;53.470;9.832;2024-03-02T09:44:32;15.97;;;11.60;;
8100;SDS011;4093;53.470;9.832;2024-03-02T09:47:01;14.67;;;11.10;;
8100;SDS011;4093;53.470;9.832;2024-03-02T09:49:29;17.80;;;12.30;;
8100;SDS011;4093;53.470;9.832;2024-03-02T09:51:57;14.70;;;10.77;;
8100;SDS011;4093;53.470;9.832;2024-03-02T09:54:25;15.30;;;11.23;;
8100;SDS011;4093;53.470;9.832;2024-03-02T09:56:53;15.37;;;11.20;;
8100;SDS011;4093;53.470;9.832;2024-03-02T09:59:20;17.07;;;10.87;;
8100;SDS011;4093;53.470;9.832;2024-03-02T10:01:58;13.07;;;10.27;;
8100;SDS011;4093;53.470;9.832;2024-03-02T10:04:28;13.53;;;9.80;;
8100;SDS011;4093;53.470;9.832;2024-03-02T10:07:10;12.00;;;9.67;;
8100;SDS011;4093;53.470;9.832;2024-03-02T10:09:39;11.97;;;9.53;;
8100;SDS011;4093;53.470;9.832;2024-03-02T10:12:07;12.83;;;9.10;;
8100;SDS011;4093;53.470;9.832;2024-03-02T10:14:37;12.63;;;9.13;;
8100;SDS011;4093;53.470;9.832;2024-03-02T10:17:07;11.07;;;8.23;;
8100;SDS011;4093;53.470;9.832;2024-03-02T10:19:36;14.33;;;9.13;;
8100;SDS011;4093;53.470;9.832;2024-03-02T10:22:06;11.60;;;9.00;;
8100;SDS011;4093;53.470;9.832;2024-03-02T10:24:35;12.57;;;8.10;;
8100;SDS011;4093;53.470;9.832;2024-03-02T10:27:06;16.10;;;10.93;;
8100;SDS011;4093;53.470;9.832;2024-03-02T10:29:39;13.47;;;9.97;;
8100;SDS011;4093;53.470;9.832;2024-03-02T10:32:10;11.60;;;9.30;;
8100;SDS011;4093;53.470;9.832;2024-03-02T10:34:40;12.43;;;8.73;;
8100;SDS011;4093;53.470;9.832;2024-03-02T10:37:10;10.93;;;8.50;;
8100;SDS011;4093;53.470;9.832;2024-03-02T10:39:39;11.67;;;8.50;;
8100;SDS011;4093;53.470;9.832;2024-03-02T10:42:07;11.93;;;8.13;;
8100;SDS011;4093;53.470;9.832;2024-03-02T10:44:36;10.67;;;7.97;;
8100;SDS011;4093;53.470;9.832;2024-03-02T10:47:04;10.80;;;8.13;;
8100;SDS011;4093;53.470;9.832;2024-03-02T10:49:32;12.07;;;9.00;;
8100;SDS011;4093;53.470;9.832;2024-03-02T10:52:02;10.77;;;7.90;;
8100;SDS011;4093;53.470;9.832;2024-03-02T10:54:30;10.60;;;7.67;;
8100;SDS011;4093;53.470;9.832;2024-03-02T10:57:04;13.33;;;7.30;;
8100;SDS011;4093;53.470;9.832;2024-03-02T10:59:36;10.97;;;7.33;;
8100;SDS011;4093;53.470;9.832;2024-03-02T11:02:10;10.73;;;7.43;;
8100;SDS011;4093;53.470;9.832;2024-03-02T11:04:41;10.53;;;7.17;;
8100;SDS011;4093;53.470;9.832;2024-03-02T11:07:11;9.67;;;6.80;;
8100;SDS011;4093;53.470;9.832;2024-03-02T11:09:41;10.47;;;7.30;;
8100;SDS011;4093;53.470;9.832;2024-03-02T11:12:12;11.93;;;7.57;;
8100;SDS011;4093;53.470;9.832;2024-03-02T11:14:44;9.67;;;6.97;;
8100;SDS011;4093;53.470;9.832;2024-03-02T11:17:13;8.63;;;6.57;;
8100;SDS011;4093;53.470;9.832;2024-03-02T11:19:43;10.23;;;6.47;;
8100;SDS011;4093;53.470;9.832;2024-03-02T11:22:12;9.87;;;7.03;;
8100;SDS011;4093;53.470;9.832;2024-03-02T11:24:48;7.27;;;6.27;;
8100;SDS011;4093;53.470;9.832;2024-03-02T11:33:24;9.00;;;7.10;;
8100;SDS011;4093;53.470;9.832;2024-03-02T11:35:53;9.07;;;6.30;;
8100;SDS011;4093;53.470;9.832;2024-03-02T11:38:24;11.83;;;7.03;;
8100;SDS011;4093;53.470;9.832;2024-03-02T11:40:55;10.70;;;6.87;;
8100;SDS011;4093;53.470;9.832;2024-03-02T11:43:23;9.30;;;6.90;;
8100;SDS011;4093;53.470;9.832;2024-03-02T11:45:57;9.00;;;6.43;;
8100;SDS011;4093;53.470;9.832;2024-03-02T11:48:26;8.47;;;6.53;;
8100;SDS011;4093;53.470;9.832;2024-03-02T11:50:54;9.17;;;6.23;;
8100;SDS011;4093;53.470;9.832;2024-03-02T11:53:27;8.87;;;6.80;;
8100;SDS011;4093;53.470;9.832;2024-03-02T11:55:59;7.27;;;6.10;;
8100;SDS011;4093;53.470;9.832;2024-03-02T11:58:28;7.73;;;6.10;;
8100;SDS011;4093;53.470;9.832;2024-03-02T12:00:55;6.87;;;5.67;;
8100;SDS011;4093;53.470;9.832;2024-03-02T12:03:24;8.97;;;6.93;;
8100;SDS011;4093;53.470;9.832;2024-03-02T12:05:54;9.37;;;7.17;;
8100;SDS011;4093;53.470;9.832;2024-03-02T12:08:22;8.37;;;6.53;;
8100;SDS011;4093;53.470;9.832;2024-03-02T12:10:58;8.97;;;6.60;;
8100;SDS011;4093;53.470;9.832;2024-03-02T12:13:28;7.53;;;5.87;;
8100;SDS011;4093;53.470;9.832;2024-03-02T12:15:56;9.53;;;5.73;;
8100;SDS011;4093;53.470;9.832;2024-03-02T12:18:24;9.17;;;6.20;;
8100;SDS011;4093;53.470;9.832;2024-03-02T12:20:53;9.70;;;7.10;;
8100;SDS011;4093;53.470;9.832;2024-03-02T12:23:24;8.57;;;6.30;;
8100;SDS011;4093;53.470;9.832;2024-03-02T12:25:52;10.37;;;6.77;;
8100;SDS011;4093;53.470;9.832;2024-03-02T12:28:22;7.53;;;6.00;;
8100;SDS011;4093;53.470;9.832;2024-03-02T12:30:49;10.33;;;6.67;;
8100;SDS011;4093;53.470;9.832;2024-03-02T12:33:18;9.73;;;6.80;;
8100;SDS011;4093;53.470;9.832;2024-03-02T12:35:48;9.03;;;6.77;;
8100;SDS011;4093;53.470;9.832;2024-03-02T12:38:16;8.70;;;6.97;;
8100;SDS011;4093;53.470;9.832;2024-03-02T12:40:44;8.03;;;6.50;;
8100;SDS011;4093;53.470;9.832;2024-03-02T12:43:12;10.07;;;6.33;;
8100;SDS011;4093;53.470;9.832;2024-03-02T12:45:41;8.20;;;6.50;;
8100;SDS011;4093;53.470;9.832;2024-03-02T12:48:09;8.73;;;6.73;;
8100;SDS011;4093;53.470;9.832;2024-03-02T12:50:36;10.10;;;7.23;;
8100;SDS011;4093;53.470;9.832;2024-03-02T12:53:04;10.20;;;6.03;;
8100;SDS011;4093;53.470;9.832;2024-03-02T12:55:32;7.57;;;5.97;;
8100;SDS011;4093;53.470;9.832;2024-03-02T12:58:00;9.27;;;5.87;;
8100;SDS011;4093;53.470;9.832;2024-03-02T13:00:29;7.80;;;5.90;;
8100;SDS011;4093;53.470;9.832;2024-03-02T13:03:02;8.20;;;5.93;;
8100;SDS011;4093;53.470;9.832;2024-03-02T13:05:30;8.70;;;6.33;;
8100;SDS011;4093;53.470;9.832;2024-03-02T13:07:59;13.90;;;6.37;;
8100;SDS011;4093;53.470;9.832;2024-03-02T13:10:27;8.40;;;6.53;;
8100;SDS011;4093;53.470;9.832;2024-03-02T13:12:55;8.33;;;5.57;;
8100;SDS011;4093;53.470;9.832;2024-03-02T13:15:23;7.37;;;5.50;;
8100;SDS011;4093;53.470;9.832;2024-03-02T13:17:53;9.63;;;6.10;;
8100;SDS011;4093;53.470;9.832;2024-03-02T13:20:22;9.63;;;6.50;;
8100;SDS011;4093;53.470;9.832;2024-03-02T13:22:52;6.57;;;5.83;;
8100;SDS011;4093;53.470;9.832;2024-03-02T13:25:20;13.40;;;9.33;;
8100;SDS011;4093;53.470;9.832;2024-03-02T13:27:48;21.10;;;12.90;;
8100;SDS011;4093;53.470;9.832;2024-03-02T13:30:15;10.67;;;6.73;;
8100;SDS011;4093;53.470;9.832;2024-03-02T13:32:43;14.10;;;9.47;;
8100;SDS011;4093;53.470;9.832;2024-03-02T13:35:11;11.87;;;8.00;;
8100;SDS011;4093;53.470;9.832;2024-03-02T13:37:40;8.43;;;5.85;;
8100;SDS011;4093;53.470;9.832;2024-03-02T13:40:09;8.90;;;5.60;;
8100;SDS011;4093;53.470;9.832;2024-03-02T13:42:40;10.47;;;6.93;;
8100;SDS011;4093;53.470;9.832;2024-03-02T13:45:08;8.23;;;6.87;;
8100;SDS011;4093;53.470;9.832;2024-03-02T13:47:35;35.83;;;20.80;;
8100;SDS011;4093;53.470;9.832;2024-03-02T13:50:03;9.23;;;6.83;;
8100;SDS011;4093;53.470;9.832;2024-03-02T13:52:32;16.83;;;9.83;;
8100;SDS011;4093;53.470;9.832;2024-03-02T13:55:01;13.90;;;8.65;;
8100;SDS011;4093;53.470;9.832;2024-03-02T13:57:29;15.13;;;9.65;;
8100;SDS011;4093;53.470;9.832;2024-03-02T13:59:57;11.10;;;7.60;;
8100;SDS011;4093;53.470;9.832;2024-03-02T14:02:25;7.80;;;6.40;;
8100;SDS011;4093;53.470;9.832;2024-03-02T14:04:52;8.70;;;6.50;;
8100;SDS011;4093;53.470;9.832;2024-03-02T14:07:20;11.23;;;7.57;;
8100;SDS011;4093;53.470;9.832;2024-03-02T14:09:48;9.50;;;6.28;;
8100;SDS011;4093;53.470;9.832;2024-03-02T14:12:17;7.43;;;6.63;;
8100;SDS011;4093;53.470;9.832;2024-03-02T14:14:45;10.47;;;6.60;;
8100;SDS011;4093;53.470;9.832;2024-03-02T14:17:12;9.47;;;6.53;;
8100;SDS011;4093;53.470;9.832;2024-03-02T14:19:41;8.87;;;6.07;;
8100;SDS011;4093;53.470;9.832;2024-03-02T14:22:09;8.52;;;6.53;;
8100;SDS011;4093;53.470;9.832;2024-03-02T14:24:40;11.25;;;6.57;;
8100;SDS011;4093;53.470;9.832;2024-03-02T14:27:09;6.78;;;5.70;;
8100;SDS011;4093;53.470;9.832;2024-03-02T14:29:55;9.80;;;5.40;;
8100;SDS011;4093;53.470;9.832;2024-03-02T14:32:22;6.05;;;5.28;;
8100;SDS011;4093;53.470;9.832;2024-03-02T14:34:50;7.03;;;5.70;;
8100;SDS011;4093;53.470;9.832;2024-03-02T14:37:18;7.13;;;5.40;;
8100;SDS011;4093;53.470;9.832;2024-03-02T14:39:46;7.57;;;5.35;;
8100;SDS011;4093;53.470;9.832;2024-03-02T14:42:14;7.68;;;5.15;;
8100;SDS011;4093;53.470;9.832;2024-03-02T14:44:41;7.50;;;5.63;;
8100;SDS011;4093;53.470;9.832;2024-03-02T14:47:11;8.57;;;5.47;;
8100;SDS011;4093;53.470;9.832;2024-03-02T14:49:39;8.13;;;5.67;;
8100;SDS011;4093;53.470;9.832;2024-03-02T14:52:08;7.60;;;5.20;;
8100;SDS011;4093;53.470;9.832;2024-03-02T14:54:35;8.13;;;5.70;;
8100;SDS011;4093;53.470;9.832;2024-03-02T14:57:04;7.93;;;6.00;;
8100;SDS011;4093;53.470;9.832;2024-03-02T14:59:33;8.03;;;6.03;;
8100;SDS011;4093;53.470;9.832;2024-03-02T15:02:00;8.53;;;6.13;;
8100;SDS011;4093;53.470;9.832;2024-03-02T15:04:29;10.07;;;6.27;;
8100;SDS011;4093;53.470;9.832;2024-03-02T15:06:57;9.07;;;5.80;;
8100;SDS011;4093;53.470;9.832;2024-03-02T15:09:25;9.43;;;6.57;;
8100;SDS011;4093;53.470;9.832;2024-03-02T15:11:53;7.83;;;6.23;;